Time;durP1;ratioP1;P1;durP2;ratioP2;P2;SDS_P1;SDS_P2;PMS_P1;PMS_P2;Temp;Humidity;BMP_temperature;BMP_pressure;BME280_temperature;BME280_humidity;BME280_pressure;Samples;Min_cycle;Max_cycle;Signal;HPM_P1;HPM_P2
2023/05/29 00:01:53;;;;;;;;;;;17.90;37.00;;;14.12;53.05;95349.16;4994500;28;19910;-45
2023/05/29 00:04:21;;;;;;;;;;;17.90;37.00;;;14.05;53.03;95344.19;4994953;28;19917;-46
2023/05/29 00:06:47;;;;;;;;;;;17.90;37.10;;;14.02;53.33;95352.81;4986876;28;20358;-47
2023/05/29 00:09:13;;;;;;;;;;;17.80;37.10;;;13.97;53.74;95354.75;4994790;28;20004;-48
2023/05/29 00:11:43;;;;;;;;;;;17.80;37.20;;;13.91;54.03;95351.34;4993944;28;20028;-49
2023/05/29 00:14:13;;;;;;;;;;;17.80;37.20;;;13.71;55.21;95347.09;4994835;28;19909;-51
2023/05/29 00:16:39;;;;;;;;;;;17.70;37.20;;;13.54;56.13;95354.84;4982302;28;19971;-49
2023/05/29 00:19:08;;;;;;;;;;;17.70;37.40;;;13.48;56.72;95348.78;4993385;28;19910;-48
2023/05/29 00:21:47;;;;;;;;;;;17.60;37.50;;;13.42;57.08;95348.03;4994761;28;19909;-48
2023/05/29 00:24:14;;;;;;;;;;;17.40;37.50;;;13.30;57.97;95349.53;4991233;28;19910;-48
2023/05/29 00:26:43;;;;;;;;;;;17.40;37.70;;;13.16;57.97;95342.19;4994505;28;19975;-51
2023/05/29 00:29:09;;;;;;;;;;;17.30;37.80;;;13.09;58.15;95352.41;4994648;28;20402;-47
2023/05/29 00:31:37;;;;;;;;;;;17.20;38.60;;;13.00;59.23;95348.00;5008351;28;20252;-45
2023/05/29 00:34:05;;;;;;;;;;;17.10;38.10;;;12.83;60.00;95349.25;4994686;28;20352;-48
2023/05/29 00:36:34;;;;;;;;;;;16.90;38.20;;;12.69;60.09;95349.13;4983118;28;19992;-48
2023/05/29 00:38:59;;;;;;;;;;;16.80;38.40;;;12.52;61.23;95342.63;4991238;28;19956;-48
2023/05/29 00:41:30;;;;;;;;;;;16.70;38.50;;;12.33;61.88;95348.66;4993186;28;19910;-50
2023/05/29 00:43:55;;;;;;;;;;;16.60;38.70;;;12.19;61.77;95351.19;4992914;28;20408;-47
2023/05/29 00:46:24;;;;;;;;;;;16.40;38.80;;;12.08;63.40;95354.22;4994209;28;20051;-46
2023/05/29 00:48:50;;;;;;;;;;;16.30;39.00;;;11.89;67.69;95352.22;4993014;28;19917;-46
2023/05/29 00:51:20;;;;;;;;;;;16.20;39.10;;;11.64;69.23;95355.81;4994132;28;19909;-46
2023/05/29 00:53:54;;;;;;;;;;;16.10;39.40;;;11.63;68.65;95354.25;5007818;28;20007;-46
2023/05/29 00:56:24;;;;;;;;;;;16.00;39.70;;;11.51;68.65;95354.56;4992901;28;19935;-46
2023/05/29 00:58:56;;;;;;;;;;;15.90;39.80;;;11.45;69.19;95360.22;4994029;28;19913;-46
2023/05/29 01:01:22;;;;;;;;;;;15.70;40.00;;;11.36;70.05;95357.31;4992676;28;19921;-46
2023/05/29 01:03:49;;;;;;;;;;;15.60;40.20;;;11.24;72.92;95365.63;4993894;28;19956;-45
2023/05/29 01:06:15;;;;;;;;;;;15.50;40.40;;;11.07;74.94;95359.84;4992734;28;19917;-47
2023/05/29 01:08:41;;;;;;;;;;;15.40;40.50;;;10.91;75.65;95372.44;4993924;28;20273;-48
2023/05/29 01:11:51;;;;;;;;;;;15.30;40.80;;;10.77;76.48;95366.06;4993585;28;19992;-45
2023/05/29 01:15:04;;;;;;;;;;;15.20;41.00;;;10.69;76.59;95363.97;4988516;28;19910;-48
2023/05/29 01:17:45;;;;;;;;;;;15.10;41.30;;;10.60;75.73;95366.38;4985520;28;20383;-48
2023/05/29 01:20:41;;;;;;;;;;;14.90;41.50;;;10.53;75.38;95363.19;4993573;28;19964;-49
2023/05/29 01:23:25;;;;;;;;;;;14.80;41.70;;;10.45;75.68;95366.41;4993638;28;20323;-47
2023/05/29 01:26:42;;;;;;;;;;;14.70;42.00;;;10.35;76.72;95365.34;4989811;28;20059;-46
2023/05/29 01:29:12;;;;;;;;;;;14.60;42.20;;;10.24;76.73;95368.25;4993231;28;19913;-46
2023/05/29 01:31:48;;;;;;;;;;;14.50;42.50;;;10.17;77.60;95365.84;5015517;28;19909;-47
2023/05/29 01:34:17;;;;;;;;;;;14.40;42.70;;;10.09;78.16;95369.88;5007036;28;19953;-46
2023/05/29 01:36:43;;;;;;;;;;;14.30;42.80;;;9.98;79.19;95362.13;4992116;28;20003;-47
2023/05/29 01:39:10;;;;;;;;;;;14.20;42.80;;;9.90;78.83;95361.59;4993264;28;19992;-48
2023/05/29 01:41:37;;;;;;;;;;;14.20;43.00;;;9.82;79.69;95364.78;4994054;28;19925;-47
2023/05/29 01:44:08;;;;;;;;;;;14.10;43.20;;;9.75;80.09;95360.78;5008004;28;19909;-47
2023/05/29 01:46:45;;;;;;;;;;;14.00;43.30;;;9.62;81.60;95359.41;4988583;28;19967;-52
2023/05/29 01:49:16;;;;;;;;;;;13.90;43.50;;;9.53;82.41;95358.34;4987939;28;20340;-51
2023/05/29 01:51:53;;;;;;;;;;;;;;;;;;;;;
2023/05/29 01:54:29;;;;;;;;;;;13.80;43.80;;;9.43;82.63;95364.44;4991829;28;19916;-51
2023/05/29 01:57:06;;;;;;;;;;;13.70;44.00;;;9.32;83.45;95352.97;4993247;28;20425;-48
2023/05/29 01:59:33;;;;;;;;;;;13.60;44.20;;;9.25;85.22;95357.75;4991182;28;20000;-49
2023/05/29 02:02:13;;;;;;;;;;;13.60;44.30;;;9.20;85.60;95349.75;4992862;28;19916;-48
2023/05/29 02:04:38;;;;;;;;;;;13.50;44.40;;;9.19;84.52;95356.13;4991301;28;19959;-47
2023/05/29 02:07:07;;;;;;;;;;;13.40;44.60;;;9.18;84.44;95360.66;4992883;28;19959;-46
2023/05/29 02:09:35;;;;;;;;;;;13.40;44.80;;;9.13;85.12;95354.53;4992620;28;20055;-46
2023/05/29 02:12:01;;;;;;;;;;;13.40;45.00;;;9.14;85.02;95361.44;5002928;28;19936;-46
2023/05/29 02:14:36;;;;;;;;;;;13.40;45.10;;;9.13;85.16;95357.19;5007668;28;20322;-46
2023/05/29 02:17:02;;;;;;;;;;;13.30;45.20;;;9.10;85.40;95349.72;4992731;28;19909;-46
2023/05/29 02:19:28;;;;;;;;;;;13.30;45.90;;;9.08;85.59;95349.97;4991477;28;20387;-48
2023/05/29 02:21:54;;;;;;;;;;;13.30;45.40;;;9.08;85.15;95355.28;4992746;28;19996;-52
2023/05/29 02:24:20;;;;;;;;;;;13.20;45.50;;;9.05;85.15;95353.16;4991574;28;20394;-47
2023/05/29 02:26:50;;;;;;;;;;;13.20;45.60;;;9.00;85.80;95353.16;4992558;28;20000;-46
2023/05/29 02:29:23;;;;;;;;;;;13.20;45.70;;;8.93;86.47;95352.56;4992399;28;20372;-52
2023/05/29 02:31:56;;;;;;;;;;;13.10;45.80;;;8.87;87.53;95350.94;4992372;28;19909;-46
2023/05/29 02:34:27;;;;;;;;;;;13.10;45.90;;;8.88;86.74;95347.25;4992266;28;19913;-47
2023/05/29 02:36:53;;;;;;;;;;;13.10;46.00;;;8.86;88.16;95350.16;4991575;28;19910;-47
2023/05/29 02:39:19;;;;;;;;;;;13.00;46.10;;;8.84;88.70;95349.63;4992488;28;19909;-47
2023/05/29 02:41:50;;;;;;;;;;;13.00;46.30;;;8.83;89.48;95349.88;4990697;28;19987;-46
2023/05/29 02:44:22;;;;;;;;;;;13.00;46.40;;;8.76;90.74;95353.56;4986208;28;19931;-47
2023/05/29 02:46:50;;;;;;;;;;;12.90;47.00;;;8.73;90.73;95350.63;4990805;28;20271;-47
2023/05/29 02:49:16;;;;;;;;;;;12.90;46.60;;;8.76;88.22;95350.13;4991359;28;19971;-46
2023/05/29 02:51:45;;;;;;;;;;;12.90;46.80;;;8.86;87.88;95334.22;4989022;28;19910;-46
2023/05/29 02:54:12;;;;;;;;;;;12.90;46.90;;;8.93;86.67;95348.09;4991251;28;19909;-47
2023/05/29 02:56:43;;;;;;;;;;;12.90;47.00;;;9.02;86.09;95341.22;4992745;28;20344;-45
2023/05/29 02:59:16;;;;;;;;;;;13.00;47.10;;;9.14;85.54;95338.31;4993200;28;19909;-49
2023/05/29 03:01:52;;;;;;;;;;;;;;;;;;;;;
2023/05/29 03:04:18;;;;;;;;;;;13.10;47.30;;;9.24;83.50;95335.69;5034131;23;19920;-48
2023/05/29 03:06:50;;;;;;;;;;;13.10;47.30;;;9.26;83.39;95340.75;5032489;28;19912;-48
2023/05/29 03:09:16;;;;;;;;;;;13.20;47.40;;;9.25;83.94;95341.81;5035217;28;20382;-48
2023/05/29 03:11:47;;;;;;;;;;;13.20;47.40;;;9.22;83.33;95351.09;5034329;28;20011;-49
2023/05/29 03:14:13;;;;;;;;;;;13.20;47.30;;;9.17;84.80;95342.31;5034653;28;20050;-48
2023/05/29 03:16:40;;;;;;;;;;;13.20;47.40;;;9.16;84.86;95340.72;5015761;28;20037;-48
2023/05/29 03:19:09;;;;;;;;;;;13.20;47.40;;;9.18;85.25;95344.72;5014323;28;20299;-47
2023/05/29 03:21:35;;;;;;;;;;;13.20;47.40;;;9.15;85.08;95347.06;5015570;28;19932;-47
2023/05/29 03:24:02;;;;;;;;;;;13.20;47.40;;;9.07;84.65;95352.91;5014342;28;19909;-52
2023/05/29 03:26:39;;;;;;;;;;;;;;;;;;;;;
2023/05/29 03:29:07;;;;;;;;;;;13.10;47.50;;;8.89;84.21;95354.94;5013532;28;19913;-47
2023/05/29 03:31:40;;;;;;;;;;;13.10;47.60;;;8.81;83.84;95360.78;5014014;28;19916;-47
2023/05/29 03:34:06;;;;;;;;;;;13.10;47.60;;;8.72;83.93;95363.13;5015174;28;19951;-47
2023/05/29 03:36:33;;;;;;;;;;;13.10;47.60;;;8.63;86.91;95362.00;5014258;28;20013;-47
2023/05/29 03:38:59;;;;;;;;;;;13.00;47.60;;;8.60;87.63;95364.38;5015550;28;20292;-47
2023/05/29 03:41:25;;;;;;;;;;;13.00;47.70;;;8.54;89.90;95359.03;5014221;28;20823;-48
2023/05/29 03:43:53;;;;;;;;;;;13.00;47.70;;;8.48;91.74;95362.69;5021552;28;19909;-46
2023/05/29 03:46:19;;;;;;;;;;;12.90;47.80;;;8.49;91.55;95356.34;5015114;28;19920;-46
2023/05/29 03:48:45;;;;;;;;;;;12.90;48.00;;;8.52;92.98;95368.28;5006313;28;19913;-46
2023/05/29 03:51:11;;;;;;;;;;;12.90;48.10;;;8.54;92.40;95366.19;5014983;28;19909;-49
2023/05/29 03:53:44;;;;;;;;;;;12.80;48.20;;;8.55;92.49;95368.59;5028740;28;19913;-49
2023/05/29 03:56:10;;;;;;;;;;;12.80;48.30;;;8.53;91.20;95368.06;5014849;28;19994;-46
2023/05/29 03:58:36;;;;;;;;;;;12.80;48.40;;;8.49;89.89;95372.28;5014875;28;20405;-49
2023/05/29 04:01:09;;;;;;;;;;;12.80;48.50;;;8.52;89.81;95371.78;5013331;28;19909;-47
2023/05/29 04:03:36;;;;;;;;;;;12.80;48.60;;;8.55;89.78;95368.59;4998862;28;19921;-46
2023/05/29 04:06:12;;;;;;;;;;;12.80;48.60;;;8.55;90.45;95363.28;5027992;28;19909;-51
2023/05/29 04:08:37;;;;;;;;;;;12.80;48.70;;;8.56;90.06;95367.53;5014466;28;19917;-47
2023/05/29 04:11:06;;;;;;;;;;;12.80;48.70;;;8.55;90.53;95368.59;5012944;28;19932;-47
2023/05/29 04:13:37;;;;;;;;;;;12.80;48.80;;;8.56;90.47;95380.03;5020991;28;19908;-51
2023/05/29 04:16:03;;;;;;;;;;;12.80;48.80;;;8.58;90.14;95381.34;5034257;28;19912;-50
2023/05/29 04:18:39;;;;;;;;;;;12.90;48.90;;;8.62;90.43;95379.00;5013642;28;19919;-52
2023/05/29 04:21:05;;;;;;;;;;;12.90;48.90;;;8.64;90.28;95379.50;5013634;28;20020;-52
2023/05/29 04:23:34;;;;;;;;;;;12.90;49.00;;;8.72;90.65;95380.91;5027556;28;19916;-49
2023/05/29 04:26:01;;;;;;;;;;;12.90;49.00;;;8.88;90.18;95382.56;5012083;28;19909;-51
2023/05/29 04:28:30;;;;;;;;;;;13.00;49.10;;;9.09;90.73;95382.66;5014527;28;20004;-52
2023/05/29 04:30:58;;;;;;;;;;;13.10;49.20;;;9.31;90.38;95382.47;5013007;28;19913;-53
2023/05/29 04:33:36;;;;;;;;;;;13.20;49.20;;;9.54;89.40;95390.00;5014313;28;20039;-50
2023/05/29 04:36:03;;;;;;;;;;;13.30;49.20;;;9.73;87.76;95393.75;5000416;28;19909;-49
2023/05/29 04:38:30;;;;;;;;;;;13.50;49.20;;;9.91;85.12;95392.47;5014021;28;19920;-50
2023/05/29 04:40:58;;;;;;;;;;;13.60;49.20;;;10.09;82.68;95396.47;5014233;28;19916;-48
2023/05/29 04:43:37;;;;;;;;;;;13.80;49.10;;;10.32;82.96;95394.38;5016752;28;19908;-48
2023/05/29 04:46:03;;;;;;;;;;;13.90;49.00;;;10.55;81.48;95395.69;5027399;28;19916;-48
2023/05/29 04:48:31;;;;;;;;;;;14.20;49.00;;;10.74;81.20;95398.56;5012588;28;19917;-49
2023/05/29 04:50:59;;;;;;;;;;;14.30;48.90;;;10.95;78.79;95397.47;5013982;28;19909;-53
2023/05/29 04:53:35;;;;;;;;;;;14.60;48.80;;;11.19;78.25;95403.00;5013853;28;19909;-48
2023/05/29 04:56:06;;;;;;;;;;;14.80;49.30;;;11.43;77.17;95405.03;5005305;28;19909;-52
2023/05/29 04:58:31;;;;;;;;;;;15.00;48.50;;;11.69;74.84;95403.00;5013785;28;20456;-49
2023/05/29 05:00:59;;;;;;;;;;;15.30;48.40;;;11.85;74.90;95404.56;5012580;28;20010;-50
2023/05/29 05:03:25;;;;;;;;;;;15.50;48.20;;;12.07;73.98;95409.50;5012328;28;19920;-49
2023/05/29 05:05:51;;;;;;;;;;;15.80;48.10;;;12.28;71.78;95412.78;5012845;28;19913;-49
2023/05/29 05:08:28;;;;;;;;;;;16.00;47.90;;;12.50;70.18;95413.19;5013507;28;19952;-50
2023/05/29 05:10:53;;;;;;;;;;;16.30;48.30;;;12.71;69.40;95408.41;5013482;28;19909;-49
2023/05/29 05:13:22;;;;;;;;;;;16.60;47.50;;;12.98;67.70;95417.78;5009841;28;19910;-50
2023/05/29 05:15:50;;;;;;;;;;;16.80;47.30;;;13.24;67.42;95412.16;5019887;28;19909;-51
2023/05/29 05:18:23;;;;;;;;;;;17.10;47.10;;;13.54;66.39;95422.53;5013138;28;19909;-52
2023/05/29 05:20:51;;;;;;;;;;;17.40;46.90;;;13.69;66.34;95416.19;5013427;28;19967;-49
2023/05/29 05:23:17;;;;;;;;;;;17.70;46.70;;;13.89;65.48;95418.59;5012661;28;19909;-51
2023/05/29 05:26:00;;;;;;;;;;;;;;;;;;;;;
2023/05/29 05:28:35;;;;;;;;;;;18.30;46.20;;;14.25;64.44;95428.78;5009227;28;19913;-51
2023/05/29 05:31:12;;;;;;;;;;;18.60;46.60;;;14.43;65.29;95429.84;5011528;28;20000;-51
2023/05/29 05:33:50;;;;;;;;;;;18.90;45.80;;;14.66;63.98;95430.84;5011606;28;20534;-49
2023/05/29 05:36:16;;;;;;;;;;;19.20;45.50;;;14.94;62.78;95429.03;5006356;28;20296;-49
2023/05/29 05:38:44;;;;;;;;;;;19.50;45.30;;;15.10;60.77;95432.22;5008763;28;19958;-49
2023/05/29 05:41:12;;;;;;;;;;;19.70;45.10;;;15.28;58.58;95434.03;5012480;28;20328;-51
2023/05/29 05:43:53;;;;;;;;;;;20.00;44.80;;;15.33;56.66;95437.72;5017700;28;19916;-53
2023/05/29 05:46:18;;;;;;;;;;;20.20;44.40;;;15.60;57.96;95443.06;5011146;28;20414;-51
2023/05/29 05:48:44;;;;;;;;;;;20.50;44.20;;;15.87;56.89;95436.91;5011950;28;19960;-54
2023/05/29 05:51:12;;;;;;;;;;;20.70;43.80;;;16.11;55.52;95433.97;5012664;28;19977;-50
2023/05/29 05:53:39;;;;;;;;;;;20.90;43.50;;;16.32;53.58;95436.19;5010695;28;19913;-53
2023/05/29 05:56:12;;;;;;;;;;;21.20;43.30;;;16.55;54.79;95435.09;4993245;28;19909;-49
2023/05/29 05:58:40;;;;;;;;;;;21.40;43.10;;;16.47;52.01;95435.03;5012075;28;19913;-54
2023/05/29 06:01:08;;;;;;;;;;;21.60;42.70;;;16.47;52.47;95437.72;5010117;28;19917;-50
2023/05/29 06:03:34;;;;;;;;;;;21.80;42.40;;;16.66;50.95;95441.81;5012644;28;19917;-51
2023/05/29 06:06:26;;;;;;;;;;;;;;;;;;;;;
2023/05/29 06:08:51;;;;;;;;;;;22.20;41.70;;;16.87;50.90;95439.44;5012364;28;19913;-49
2023/05/29 06:11:20;;;;;;;;;;;22.30;41.40;;;16.81;50.69;95446.06;5012478;28;19970;-51
2023/05/29 06:14:12;;;;;;;;;;;22.50;41.10;;;17.13;50.98;95446.06;5010147;28;19962;-49
2023/05/29 06:16:38;;;;;;;;;;;22.60;40.90;;;16.88;50.28;95449.09;5004009;28;19917;-55
2023/05/29 06:19:15;;;;;;;;;;;22.80;40.70;;;17.26;49.67;95448.66;5008823;28;19909;-51
2023/05/29 06:21:45;;;;;;;;;;;22.90;40.40;;;17.48;49.07;95441.63;5011438;28;19944;-51
2023/05/29 06:24:15;;;;;;;;;;;23.10;40.20;;;17.66;48.73;95455.94;5010804;28;20006;-52
2023/05/29 06:26:50;;;;;;;;;;;23.30;40.00;;;17.77;48.31;95451.91;5011830;28;19940;-52
2023/05/29 06:29:23;;;;;;;;;;;23.40;39.70;;;17.69;47.82;95447.25;5011462;28;19919;-53
2023/05/29 06:31:49;;;;;;;;;;;23.60;39.50;;;18.02;47.95;95444.97;5010930;28;19909;-51
2023/05/29 06:34:14;;;;;;;;;;;23.80;39.30;;;17.93;47.59;95453.03;5010008;28;19909;-51
2023/05/29 06:36:52;;;;;;;;;;;;;;;;;;;;;
2023/05/29 06:39:20;;;;;;;;;;;24.10;38.90;;;18.44;47.38;95464.19;5010738;28;20004;-51
2023/05/29 06:41:47;;;;;;;;;;;24.20;38.60;;;18.64;46.52;95463.53;5011312;28;19952;-50
2023/05/29 06:44:12;;;;;;;;;;;24.40;38.50;;;18.83;46.75;95468.63;5010543;28;20322;-51
2023/05/29 06:46:47;;;;;;;;;;;24.70;38.40;;;18.94;46.48;95467.19;5012147;28;19913;-49
2023/05/29 06:49:20;;;;;;;;;;;24.90;38.80;;;19.09;45.73;95467.81;5010085;28;19913;-52
2023/05/29 06:51:56;;;;;;;;;;;25.10;37.90;;;19.27;45.88;95471.25;5011601;28;20339;-54
2023/05/29 06:54:24;;;;;;;;;;;25.30;37.60;;;19.36;45.45;95466.59;5009793;28;20330;-51
2023/05/29 06:57:02;;;;;;;;;;;;;;;;;;;;;
2023/05/29 06:59:41;;;;;;;;;;;;;;;;;;;;;
2023/05/29 07:02:16;;;;;;;;;;;25.80;37.00;;;20.20;43.72;95469.56;5009925;28;20000;-50
2023/05/29 07:04:47;;;;;;;;;;;26.00;36.70;;;20.26;42.95;95470.97;5011722;28;19921;-52
2023/05/29 07:07:15;;;;;;;;;;;26.10;36.30;;;20.39;42.27;95464.50;5010829;28;19979;-55
2023/05/29 07:09:41;;;;;;;;;;;26.20;36.10;;;20.24;42.64;95470.47;5012318;28;20003;-53
2023/05/29 07:12:17;;;;;;;;;;;26.30;35.70;;;19.76;43.05;95467.09;5011149;28;19993;-55
2023/05/29 07:15:00;;;;;;;;;;;;;;;;;;;;;
2023/05/29 07:17:35;;;;;;;;;;;26.40;35.10;;;19.56;43.78;95468.59;5011589;28;19912;-55
2023/05/29 07:20:01;;;;;;;;;;;26.50;34.90;;;19.85;43.17;95467.84;5011566;28;19913;-54
2023/05/29 07:22:40;;;;;;;;;;;;;;;;;;;;;
2023/05/29 07:25:06;;;;;;;;;;;26.60;34.60;;;20.35;43.64;95468.97;5006968;28;19913;-55
2023/05/29 07:27:42;;;;;;;;;;;26.60;34.50;;;20.55;43.70;95475.53;5011633;28;19917;-54
2023/05/29 07:30:11;;;;;;;;;;;26.80;34.50;;;20.81;42.64;95469.94;5010995;28;20397;-52
2023/05/29 07:32:41;;;;;;;;;;;26.90;34.40;;;21.00;42.12;95472.91;5011547;28;19970;-53
2023/05/29 07:35:10;;;;;;;;;;;27.00;34.90;;;21.33;41.28;95472.09;5011896;28;19955;-52
2023/05/29 07:37:36;;;;;;;;;;;27.20;34.20;;;21.61;41.18;95464.16;4997815;28;19913;-55
2023/05/29 07:40:05;;;;;;;;;;;27.40;34.20;;;21.69;40.11;95460.53;5011689;28;19916;-55
2023/05/29 07:42:34;;;;;;;;;;;27.60;34.00;;;21.73;39.66;95459.88;5010468;28;19931;-55
2023/05/29 07:45:02;;;;;;;;;;;27.80;33.70;;;21.86;40.73;95470.38;5011935;28;19909;-57
2023/05/29 07:47:31;;;;;;;;;;;27.90;33.40;;;21.81;40.06;95467.09;5013733;28;19917;-56
2023/05/29 07:50:17;;;;;;;;;;;28.10;33.20;;;21.69;40.53;95465.19;5008560;28;20359;-57
2023/05/29 07:52:50;;;;;;;;;;;28.10;32.90;;;21.53;40.54;95461.53;5003990;28;19964;-55
2023/05/29 07:55:21;;;;;;;;;;;28.20;32.60;;;21.62;41.02;95463.03;5013749;28;20348;-56
2023/05/29 07:57:48;;;;;;;;;;;28.30;32.40;;;21.81;40.58;95467.91;5015007;28;19949;-54
2023/05/29 08:00:21;;;;;;;;;;;28.30;32.30;;;21.96;39.67;95471.81;5013932;28;20478;-51
2023/05/29 08:02:49;;;;;;;;;;;28.40;32.30;;;21.31;42.22;95468.13;5014652;28;19956;-54
2023/05/29 08:05:18;;;;;;;;;;;28.50;32.20;;;21.62;40.96;95470.34;5007841;28;20012;-56
2023/05/29 08:07:48;;;;;;;;;;;28.60;32.30;;;21.71;39.63;95468.31;5010801;28;19916;-56
2023/05/29 08:10:16;;;;;;;;;;;28.70;32.10;;;21.64;39.04;95476.22;5006628;28;19909;-52
2023/05/29 08:12:54;;;;;;;;;;;;;;;;;;;;;
2023/05/29 08:15:24;;;;;;;;;;;28.80;31.60;;;22.16;39.95;95478.28;5010617;28;20368;-55
2023/05/29 08:17:49;;;;;;;;;;;28.90;31.60;;;22.36;38.59;95468.41;5013400;28;21181;-55
2023/05/29 08:20:18;;;;;;;;;;;29.00;31.40;;;22.41;39.38;95465.47;5014364;28;20360;-50
2023/05/29 08:22:46;;;;;;;;;;;29.10;31.20;;;22.37;38.89;95470.78;5014425;28;19948;-53
2023/05/29 08:25:34;;;;;;;;;;;;;;;;;;;;;
2023/05/29 08:28:03;;;;;;;;;;;29.30;31.00;;;22.50;39.01;95473.47;5001463;28;19913;-52
2023/05/29 08:30:39;;;;;;;;;;;;;;;;;;;;;
2023/05/29 08:33:14;;;;;;;;;;;29.40;30.60;;;22.50;38.94;95468.03;5013457;28;19909;-53
2023/05/29 08:35:53;;;;;;;;;;;29.60;30.60;;;22.54;38.16;95468.94;5013734;28;19909;-50
2023/05/29 08:38:21;;;;;;;;;;;29.60;30.30;;;22.29;38.23;95479.06;5013973;28;19996;-52
2023/05/29 08:41:16;;;;;;;;;;;29.70;30.20;;;21.81;39.45;95477.91;5014276;28;19913;-51
2023/05/29 08:43:51;;;;;;;;;;;29.70;30.00;;;22.15;39.28;95473.97;5011900;28;20260;-52
2023/05/29 08:46:36;;;;;;;;;;;29.70;29.90;;;22.45;38.66;95466.38;5044630;28;19909;-53
2023/05/29 08:49:07;;;;;;;;;;;29.70;29.90;;;22.06;40.04;95470.56;5007189;28;19913;-54
2023/05/29 08:51:50;;;;;;;;;;;;;;;;;;;;;
2023/05/29 08:54:35;;;;;;;;;;;29.80;29.90;;;23.26;38.42;95477.16;5007772;28;19913;-56
2023/05/29 08:57:03;;;;;;;;;;;29.90;29.90;;;23.53;38.21;95483.66;5011032;28;19951;-54
2023/05/29 08:59:33;;;;;;;;;;;30.10;30.00;;;23.58;37.28;95477.97;5013338;28;20364;-55
2023/05/29 09:01:58;;;;;;;;;;;30.30;30.50;;;23.58;37.59;95480.69;5012935;28;19962;-53
2023/05/29 09:04:36;;;;;;;;;;;30.50;29.80;;;23.75;37.68;95480.41;5014109;28;20363;-53
2023/05/29 09:07:02;;;;;;;;;;;30.60;29.60;;;24.11;36.59;95483.16;5019808;28;19909;-50
2023/05/29 09:09:31;;;;;;;;;;;30.70;29.60;;;23.48;37.67;95471.13;5044501;28;20279;-52
2023/05/29 09:12:02;;;;;;;;;;;30.90;29.40;;;23.81;37.20;95472.72;5012844;28;20004;-55
2023/05/29 09:14:40;;;;;;;;;;;30.90;29.20;;;24.11;37.05;95470.34;5013611;28;20303;-51
2023/05/29 09:17:17;;;;;;;;;;;31.00;29.00;;;24.03;36.10;95482.19;5013503;28;19928;-53
2023/05/29 09:20:04;;;;;;;;;;;31.10;28.90;;;24.14;36.19;95474.28;5011457;28;19909;-50
2023/05/29 09:22:34;;;;;;;;;;;31.20;28.80;;;24.15;36.92;95482.09;5013608;28;20394;-50
2023/05/29 09:25:08;;;;;;;;;;;31.30;28.80;;;23.78;37.08;95474.25;5026933;28;19916;-50
2023/05/29 09:28:18;;;;;;;;;;;31.40;28.70;;;24.68;35.90;95470.81;5013674;28;19913;-53
2023/05/29 09:31:01;;;;;;;;;;;31.50;29.20;;;25.06;34.76;95469.22;5000098;28;19909;-56
2023/05/29 09:33:48;;;;;;;;;;;31.70;28.70;;;24.58;34.58;95474.13;5013092;28;19916;-52
2023/05/29 09:36:28;;;;;;;;;;;31.80;28.50;;;24.57;36.39;95478.78;5025401;28;19952;-52
2023/05/29 09:39:14;;;;;;;;;;;;;;;;;;;;;
2023/05/29 09:42:03;;;;;;;;;;;;;;;;;;;;;
2023/05/29 09:44:31;;;;;;;;;;;32.00;28.00;;;25.08;34.66;95477.84;5005634;28;20291;-51
2023/05/29 09:47:20;;;;;;;;;;;32.10;27.90;;;24.91;34.77;95477.13;5012555;28;19932;-51
2023/05/29 09:49:48;;;;;;;;;;;32.20;27.80;;;25.29;34.42;95472.81;5011464;28;19909;-56
2023/05/29 09:52:20;;;;;;;;;;;32.20;27.70;;;25.03;34.67;95476.19;5012354;28;19913;-56
2023/05/29 09:54:59;;;;;;;;;;;32.30;28.20;;;25.11;34.54;95482.56;5010892;28;19909;-54
2023/05/29 09:57:25;;;;;;;;;;;32.40;27.60;;;25.24;34.78;95470.38;5013141;28;20002;-55
2023/05/29 09:59:52;;;;;;;;;;;32.40;27.50;;;25.35;33.89;95479.56;5025869;28;19920;-58
2023/05/29 10:02:24;;;;;;;;;;;32.40;27.40;;;25.54;33.70;95469.72;5011998;28;19912;-54
2023/05/29 10:04:50;;;;;;;;;;;32.50;27.40;;;25.53;34.32;95474.41;5012395;28;20015;-52
2023/05/29 10:07:42;;;;;;;;;;;32.60;27.30;;;25.54;35.47;95472.44;5011201;28;20000;-53
2023/05/29 10:10:19;;;;;;;;;;;32.70;27.20;;;25.43;34.88;95472.28;5035568;28;19917;-52
2023/05/29 10:13:02;;;;;;;;;;;32.70;27.00;;;25.89;33.94;95466.84;5006288;28;19909;-52
2023/05/29 10:15:40;;;;;;;;;;;;;;;;;;;;;
2023/05/29 10:18:37;;;;;;;;;;;32.90;27.50;;;25.77;33.99;95456.09;5023253;28;20000;-53
2023/05/29 10:21:11;;;;;;;;;;;33.10;27.00;;;25.22;35.36;95466.44;5010875;28;19909;-54
2023/05/29 10:23:53;;;;;;;;;;;33.10;26.90;;;25.62;34.92;95463.25;5011554;28;19912;-54
2023/05/29 10:26:30;;;;;;;;;;;33.10;27.40;;;25.72;33.33;95450.94;5014513;28;19940;-53
2023/05/29 10:29:29;;;;;;;;;;;33.20;27.40;;;25.73;34.12;95453.31;5012025;28;19921;-51
2023/05/29 10:32:14;;;;;;;;;;;33.30;26.70;;;25.96;33.62;95447.84;5005421;28;19909;-53
2023/05/29 10:35:27;;;;;;;;;;;33.30;26.60;;;26.36;33.35;95457.41;5008466;28;19987;-52
2023/05/29 10:38:09;;;;;;;;;;;33.50;26.60;;;25.73;33.59;95450.59;5010590;28;19970;-53
2023/05/29 10:40:37;;;;;;;;;;;33.60;26.60;;;26.03;33.23;95438.97;5025834;28;19909;-54
2023/05/29 10:43:13;;;;;;;;;;;33.70;26.50;;;26.17;33.30;95443.88;5013470;28;20656;-53
2023/05/29 10:45:50;;;;;;;;;;;33.70;26.40;;;26.29;32.88;95443.63;5012277;28;19909;-52
2023/05/29 10:48:20;;;;;;;;;;;33.80;26.30;;;25.54;32.51;95446.00;5009589;28;20676;-55
2023/05/29 10:50:55;;;;;;;;;;;33.90;26.00;;;25.71;31.54;95439.25;5012397;28;19955;-53
2023/05/29 10:53:41;;;;;;;;;;;;;;;;;;;;;
2023/05/29 10:56:37;;;;;;;;;;;;;;;;;;;;;
2023/05/29 10:59:16;;;;;;;;;;;;;;;;;;;;;
2023/05/29 11:01:53;;;;;;;;;;;33.90;25.50;;;25.59;32.11;95436.72;5024518;28;20263;-53
2023/05/29 11:04:41;;;;;;;;;;;;;;;;;;;;;
2023/05/29 11:07:52;;;;;;;;;;;33.80;25.40;;;25.95;31.99;95437.28;5004201;28;19909;-53
2023/05/29 11:10:46;;;;;;;;;;;33.80;25.40;;;26.36;31.42;95441.03;5011963;28;19917;-51
2023/05/29 11:13:44;;;;;;;;;;;34.00;25.70;;;25.89;31.53;95431.38;5010628;28;20291;-51
2023/05/29 11:16:12;;;;;;;;;;;34.20;25.50;;;25.84;30.54;95434.41;5011641;28;19916;-53
2023/05/29 11:18:53;;;;;;;;;;;34.20;25.30;;;26.07;30.32;95434.34;5010798;28;19924;-52
2023/05/29 11:21:49;;;;;;;;;;;34.20;25.10;;;25.94;30.88;95425.59;5014417;28;19909;-53
2023/05/29 11:24:51;;;;;;;;;;;34.30;25.10;;;26.18;30.23;95434.53;5010421;28;20012;-51
2023/05/29 11:27:34;;;;;;;;;;;34.40;25.10;;;26.89;30.59;95432.75;4998800;28;19913;-51
2023/05/29 11:30:18;;;;;;;;;;;34.50;25.20;;;27.11;30.20;95443.91;5025160;28;19916;-53
2023/05/29 11:32:49;;;;;;;;;;;34.70;25.10;;;27.07;30.24;95438.38;5015167;28;20470;-50
2023/05/29 11:35:22;;;;;;;;;;;34.80;25.00;;;26.78;30.44;95437.28;5014211;28;19948;-51
2023/05/29 11:38:18;;;;;;;;;;;;;;;;;;;;;
2023/05/29 11:40:44;;;;;;;;;;;35.10;24.80;;;27.07;29.65;95440.34;5013693;28;19975;-52
2023/05/29 11:43:15;;;;;;;;;;;35.10;24.60;;;26.87;30.23;95437.78;5029514;28;19908;-53
2023/05/29 11:45:40;;;;;;;;;;;35.10;24.60;;;26.12;31.02;95428.59;5015301;28;19916;-52
2023/05/29 11:48:18;;;;;;;;;;;;;;;;;;;;;
2023/05/29 11:50:56;;;;;;;;;;;35.10;24.50;;;26.87;30.68;95431.53;5004657;28;19916;-51
2023/05/29 11:53:59;;;;;;;;;;;;;;;;;;;;;
2023/05/29 11:56:52;;;;;;;;;;;35.30;24.60;;;26.81;31.10;95433.03;5005584;28;20356;-51
2023/05/29 11:59:33;;;;;;;;;;;;;;;;;;;;;
2023/05/29 12:02:15;;;;;;;;;;;;;;;;;;;;;
2023/05/29 12:04:59;;;;;;;;;;;35.60;24.50;;;27.09;29.07;95425.13;5012333;28;19924;-51
2023/05/29 12:07:33;;;;;;;;;;;35.60;24.30;;;27.41;29.26;95439.13;5012758;28;19920;-56
2023/05/29 12:10:21;;;;;;;;;;;35.70;24.30;;;27.58;29.50;95434.22;5015084;28;19909;-51
2023/05/29 12:13:40;;;;;;;;;;;;;;;;;;;;;
2023/05/29 12:16:07;;;;;;;;;;;36.00;24.10;;;27.69;29.05;95433.13;5011719;28;20380;-53
2023/05/29 12:18:33;;;;;;;;;;;36.00;24.00;;;27.93;29.60;95427.50;5029059;28;19935;-56
2023/05/29 12:21:04;;;;;;;;;;;36.10;24.00;;;27.92;28.22;95434.91;5014229;28;19931;-55
2023/05/29 12:23:44;;;;;;;;;;;36.20;24.00;;;28.04;29.05;95429.13;5029569;28;19920;-54
2023/05/29 12:26:12;;;;;;;;;;;36.30;24.00;;;28.20;27.67;95428.03;5012775;28;19909;-51